Drachten Airfield

EHDR · Friesland, Niederlande

METAR-Geschichte EHDR · Drachten Airfield

Unten siehst du die METARs der letzten paar Tage. Wähle ein Jahr, um ältere METARs ab dem Jahr 2007 zu durchsuchen.

24. März 2023

Uhrzeit Code Wetter Temp. Sichtweite Wolkendecke Wind METAR/SPECI
21:55
V
9 °C 10 km+ 9.500 ft 220° 220° 26 kt METAR EHVL 242055Z AUTO 22026KT 9999 FEW090 BKN095 OVC100 09/07 Q0996 BLU
21:25
V
9 °C 10 km+ - 220° 220° 26 kt METAR EHVL 242025Z AUTO 22026KT 9999 SCT210 09/07 Q0996 BLU
20:55
V
9 °C 10 km+ - 210° 210° 27 kt METAR EHVL 241955Z AUTO 21027KT 9999 FEW140 09/07 Q0996 BLU
20:25
V
9 °C 10 km+ - 210° 210° 26 kt METAR EHVL 241925Z AUTO 21026KT 9999 NCD 09/07 Q0997 BLU
19:55
V
9 °C 10 km+ 10.000 ft 220° 220° 26 kt METAR EHVL 241855Z AUTO 22026KT 9999 SCT091 BKN100 BKN160 09/07 Q0997 BLU
19:25
V
9 °C 10 km+ 12.000 ft 220° 220° 26 kt METAR EHVL 241825Z AUTO 22026KT 9999 FEW078 BKN120 BKN170 09/07 Q0997 BLU
18:55
V
9 °C 10 km+ 18.000 ft 220° 220° 26 kt METAR EHVL 241755Z AUTO 22026KT 9999 OVC180 09/07 Q0997 BLU
18:25
V
9 °C 9 km 17.000 ft 220° 220° 26 kt METAR EHVL 241725Z AUTO 22026KT 9000 BR OVC170 09/07 Q0997 BLU
17:55
V
10 °C 9 km - 220° 220° 27 kt METAR EHVL 241655Z AUTO 22027KT 9000 BR NCD 10/07 Q0997 BLU
17:25
V
10 °C 10 km+ - 220° 220° 29 kt METAR EHVL 241625Z AUTO 22029KT 9999 NCD 10/07 Q0997 BLU
16:55
V
11 °C 10 km+ - 220° 220° 29 kt METAR EHVL 241555Z AUTO 22029KT 9999 NCD 11/07 Q0997 BLU
16:25
V
10 °C 10 km+ - 220° 220° 26 kt METAR EHVL 241525Z AUTO 22026KT 9999 NCD 10/07 Q0998 BLU
15:55
V
10 °C 10 km+ - 220° 220° 25 kt METAR EHVL 241455Z AUTO 22025KT 9999 NCD 10/08 Q0998 BLU
15:25
V
11 °C 10 km+ - 220° 220° 25 kt METAR EHVL 241425Z AUTO 22025KT 9999 NCD 11/08 Q0998 BLU
14:55
V
11 °C 10 km+ - 220° 220° 26 kt METAR EHVL 241355Z AUTO 22026KT 9999 NCD 11/08 Q0998 BLU
14:25
V
11 °C 10 km+ - 220° 220° 26 kt METAR EHVL 241325Z AUTO 22026KT 9999 NCD 11/08 Q0998 BLU
13:55
V
11 °C 10 km+ - 220° 220° 27 kt METAR EHVL 241255Z AUTO 22027KT 9999 NCD 11/08 Q0999 BLU
13:25
V
11 °C 10 km+ - 220° 220° 26 kt METAR EHVL 241225Z AUTO 22026KT 9999 NCD 11/08 Q0999 BLU
12:55
V
11 °C 10 km+ - 220° 220° 25 kt METAR EHVL 241155Z AUTO 22025KT 9999 NCD 11/08 Q0999 BLU
12:25
V
11 °C 10 km+ 14.000 ft 220° 220° 25 kt METAR EHVL 241125Z AUTO 22025KT 9999 FEW007 BKN140 11/08 Q0999 BLU
11:55
V
11 °C 10 km+ 15.000 ft 230° 230° 25 kt METAR EHVL 241055Z AUTO 23025KT 9999 BKN150 11/08 Q0999 BLU
11:25
V
10 °C 10 km+ - 230° 230° 26 kt METAR EHVL 241025Z AUTO 23026KT 9999 NCD 10/08 Q0998 BLU
10:55
V
10 °C 10 km+ - 230° 230° 26 kt METAR EHVL 240955Z AUTO 23026KT 9999 NCD 10/07 Q0998 BLU
10:25
V
10 °C 10 km+ - 230° 230° 27 kt METAR EHVL 240925Z AUTO 23027KT 9999 NCD 10/07 Q0998 BLU
09:55
V
10 °C 10 km+ - 230° 230° 26 kt METAR EHVL 240855Z AUTO 23026KT 9999 NCD 10/07 Q0997 BLU
09:25
V
10 °C 10 km+ - 240° 240° 26 kt METAR EHVL 240825Z AUTO 24026KT 9999 NCD 10/07 Q0997 BLU
08:55
V
10 °C 10 km+ - 240° 240° 26 kt METAR EHVL 240755Z AUTO 24026KT 9999 NCD 10/07 Q0996 BLU
08:25
V
9 °C 10 km+ - 240° 240° 26 kt METAR EHVL 240725Z AUTO 24026KT 9999 NCD 09/07 Q0996 BLU
07:55
V
9 °C 10 km+ - 240° 240° 26 kt METAR EHVL 240655Z AUTO 24026KT 9999 NCD 09/07 Q0996 BLU
07:25
V
9 °C 10 km+ - 230° 230° 25 kt METAR EHVL 240625Z AUTO 23025KT 9999 NCD 09/07 Q0995 BLU
06:55
V
8 °C 10 km+ - 230° 230° 25 kt METAR EHVL 240555Z AUTO 23025KT 9999 NCD 08/07 Q0995 BLU
06:25
V
8 °C 10 km+ - 230° 230° 26 kt METAR EHVL 240525Z AUTO 23026KT 9999 NCD 08/07 Q0995 BLU
05:55
V
8 °C 10 km+ - 230° 230° 23 kt METAR EHVL 240455Z AUTO 23023KT 9999 NCD 08/07 Q0994 BLU
05:25
V
9 °C 10 km+ - 240° 240° 23 kt METAR EHVL 240425Z AUTO 24023KT 9999 NCD 09/07 Q0994 BLU
04:55
V
9 °C 10 km+ 22.000 ft 240° 240° 23 kt METAR EHVL 240355Z AUTO 24023KT 9999 OVC220 09/07 Q0994 BLU
04:25
V
9 °C 10 km+ 23.000 ft 240° 240° 25 kt METAR EHVL 240325Z AUTO 24025KT 9999 OVC230 09/07 Q0993 BLU
03:55
V
9 °C 10 km+ 5.400 ft 230° 230° 25 kt METAR EHVL 240255Z AUTO 23025KT 9999 OVC054 09/08 Q0993 BLU
03:43
V
10 °C 10 km+ 4.800 ft 230° 230° 27 kt METAR EHVL 240243Z AUTO 23027KT 9999 FEW010 BKN048 OVC056 10/08 Q0993 BLU
03:42
V
10 °C 10 km+ 4.700 ft 230° 230° 27 kt METAR EHVL 240242Z AUTO 23027KT 9999 FEW010 SCT013 BKN047 10/08 Q0992 GRN
03:25
V
10 °C 10 km+ 3.800 ft 230° 230° 27 kt METAR EHVL 240225Z AUTO 23027KT 9999 FEW033 BKN038 OVC042 10/09 Q0992 BLU
03:11
V
10 °C 9 km 3.200 ft 220° 220° 29 kt METAR EHVL 240211Z AUTO 22029KT 9000 BR FEW006 FEW015CB SCT027 BKN032 10/09 Q0992 BLU
02:55
M
11 °C 10 km+ 1.500 ft 220° 220° 31 kt METAR EHVL 240155Z AUTO 22031KT 9999 BKN015CB OVC019 11/09 Q0992 REDZ WHT
02:42
M
11 °C 10 km+ 1.400 ft 220° 220° 34 kt METAR EHVL 240142Z AUTO 22034KT 9999 FEW010 SCT012 BKN014 FEW015CB 11/10 Q0992 GRN
02:32
M
11 °C 10 km+ 1.200 ft 210° 210° 33 - 44 kt METAR EHVL 240132Z AUTO 21033G44KT 9999 DZRA SCT010 BKN012 BKN014 FEW015CB 11/10 Q0992 GRN
02:25
M
11 °C 10 km+ 1.000 ft 210° 210° 29 kt METAR EHVL 240125Z AUTO 21029KT 9999 DZ FEW008 BKN010 BKN012 FEW015CB 11/10 Q0992 GRN
02:18
M
11 °C 10 km+ 1.200 ft 210° 210° 30 - 41 kt METAR EHVL 240118Z AUTO 21030G41KT 9999 -RADZ FEW008 SCT010 BKN012 FEW015CB 11/10 Q0992 GRN
02:17
M
12 °C 10 km+ 1.600 ft 210° 210° 30 - 41 kt METAR EHVL 240117Z AUTO 21030G41KT 9999 -RA FEW009 SCT012 FEW015CB OVC016 12/10 Q0992 GRN
02:04
I
11 °C 6 km 900 ft 200° 200° 23 - 35 kt METAR EHVL 240104Z AUTO 20023G35KT 170V240 6000 -RA FEW007 SCT008 BKN009 SCT015CB 11/10 Q0992 GRN
01:55
I
11 °C 4,1 km 1.200 ft 210° 210° 18 kt METAR EHVL 240055Z AUTO 21018KT 4100 SHRA FEW006 SCT008 BKN012 SCT015CB 11/10 Q0993 GRN
01:41
I
11 °C 3,8 km 4.000 ft 200° 200° 24 kt METAR EHVL 240041Z AUTO 20024KT 3800 -SHRA FEW013 FEW015CB BKN040 OVC046 11/10 Q0993 GRN
01:29
V
11 °C 10 km+ 4.900 ft 200° 200° 25 kt METAR EHVL 240029Z AUTO 20025KT 9999 -RA FEW009 FEW015CB SCT030 OVC049 11/10 Q0993 BLU
01:25
V
11 °C 10 km+ 4.300 ft 200° 200° 26 kt METAR EHVL 240025Z AUTO 20026KT 9999 -RA FEW015CB SCT022 BKN043 11/10 Q0993 RERA REDZ WHT
01:21
V
11 °C 10 km+ 4.500 ft 200° 200° 26 kt METAR EHVL 240021Z AUTO 20026KT 9999 -RA FEW015CB SCT023 BKN045 11/10 Q0993 WHT
01:05
M
11 °C 8 km 2.700 ft 200° 200° 26 kt METAR EHVL 240005Z AUTO 20026KT 8000 -RA FEW009 BKN027 BKN030 11/10 Q0994 BLU
00:59
M
11 °C 8 km 1.800 ft 200° 200° 23 kt METAR EHVL 232359Z AUTO 20023KT 8000 DZRA FEW009 BKN018 OVC022 11/10 Q0994 WHT
00:41
I
10 °C 4,1 km 700 ft 200° 200° 22 kt METAR EHVL 232341Z AUTO 20022KT 4100 -RA FEW006 BKN007 OVC008 10/10 Q0994 GRN
00:33
I
10 °C 3,4 km 800 ft 190° 190° 19 kt METAR EHVL 232333Z AUTO 19019KT 3400 -RADZ FEW005 SCT007 BKN008 10/09 Q0994 YLO
00:28
I
10 °C 4,9 km 1.000 ft 190° 190° 17 kt METAR EHVL 232328Z AUTO 19017KT 4900 -RADZ FEW007 SCT009 BKN010 10/09 Q0995 GRN
00:25
M
10 °C 8 km 1.100 ft 190° 190° 17 kt METAR EHVL 232325Z AUTO 19017KT 8000 BR FEW005 SCT009 BKN011 10/09 Q0995 REDZ GRN
00:12
M
10 °C 8 km 1.000 ft 180° 180° 14 kt METAR EHVL 232312Z AUTO 18014KT 150V210 8000 +DZ FEW005 SCT007 BKN010 FEW015CB 10/09 Q0995 GRN
00:08
I
10 °C 6 km 800 ft 180° 180° 13 kt METAR EHVL 232308Z AUTO 18013KT 6000 DZRA SCT004 SCT006 BKN008 FEW015CB 10/09 Q0995 YLO

23. März 2023

Uhrzeit Code Wetter Temp. Sichtweite Wolkendecke Wind METAR/SPECI
23:58
I
9 °C 4,4 km 1.100 ft 180° 180° 11 kt METAR EHVL 232258Z AUTO 18011KT 4400 -RA FEW005 SCT009 BKN011 FEW015CB 09/09 Q0995 GRN
23:55
I
9 °C 4,8 km 1.500 ft 180° 180° 11 kt METAR EHVL 232255Z AUTO 18011KT 4800 -RA FEW005 SCT010 BKN015CB 09/09 Q0995 GRN
23:34
I
9 °C 3,6 km 1.100 ft 160° 160° 11 kt SPECI EHVL 232234Z AUTO 16011KT 3600 -RA FEW003 SCT008 BKN011 FEW015CB 09/09 Q0995 YLO
23:25
I
9 °C 4,4 km 1.500 ft 150° 150° 11 kt METAR EHVL 232225Z AUTO 15011KT 4400 -RA FEW013 BKN015CB BKN019 09/09 Q0996 GRN
23:19
M
9 °C 5 km 2.100 ft 160° 160° 11 kt METAR EHVL 232219Z AUTO 16011KT 5000 -RA FEW015CB SCT016 BKN021 OVC025 09/09 Q0996 WHT
23:17
M
9 °C 5 km 2.600 ft 160° 160° 10 kt METAR EHVL 232217Z AUTO 16010KT 5000 -RA FEW010 FEW015CB SCT022 BKN026 09/09 Q0996 WHT
23:10
M
9 °C 5 km 2.600 ft 160° 160° 10 kt METAR EHVL 232210Z AUTO 16010KT 5000 -RA FEW010 FEW015CB SCT016 BKN026 09/09 Q0996 WHT
23:08
I
9 °C 4,4 km 2.900 ft 160° 160° 9 kt METAR EHVL 232208Z AUTO 16009KT 4400 -RA FEW013 FEW015CB SCT017 BKN029 09/09 Q0996 GRN
23:04
I
9 °C 4,2 km 4.400 ft 160° 160° 9 kt METAR EHVL 232204Z AUTO 16009KT 4200 -RA FEW004 FEW015CB SCT017 BKN044 09/09 Q0996 GRN
23:00
I
9 °C 4,2 km 2.900 ft 160° 160° 10 kt METAR EHVL 232200Z AUTO 16010KT 4200 -RA FEW000 SCT004 FEW015CB BKN029 09/09 Q0997 YLO
22:55
L
9 °C 4,5 km 400 ft 170° 170° 10 kt METAR EHVL 232155Z AUTO 17010KT 4500 -RA SCT000 BKN004 FEW015CB BKN019 09/08 Q0997 RED
22:49
I
9 °C 4,7 km 700 ft 170° 170° 9 kt SPECI EHVL 232149Z AUTO 17009KT 4700 -RA FEW001 SCT003 BKN007 FEW015CB 09/09 Q0997 YLO
22:42
M
9 °C 5 km 5.000 ft 170° 170° 9 kt METAR EHVL 232142Z AUTO 17009KT 140V200 5000 -RA FEW001 SCT003 FEW015CB BKN050 09/09 Q0997 YLO
22:40
M
9 °C 5 km 2.100 ft 180° 180° 8 kt METAR EHVL 232140Z AUTO 18008KT 5000 -RA FEW001 SCT010 FEW015CB BKN021 09/09 Q0997 GRN
22:37
M
9 °C 5 km 3.200 ft 180° 180° 9 kt METAR EHVL 232137Z AUTO 18009KT 5000 -RA FEW004 FEW015CB SCT016 BKN032 09/09 Q0997 WHT
22:29
I
9 °C 5 km 700 ft 200° 200° 10 kt METAR EHVL 232129Z AUTO 20010KT 5000 -RA FEW006 BKN007 FEW015CB OVC037 09/09 Q0997 GRN
22:25
I
9 °C 5 km 600 ft 200° 200° 11 kt METAR EHVL 232125Z AUTO 20011KT 5000 -RADZ FEW005 BKN006 SCT015CB 09/09 Q0997 YLO
22:17
I
9 °C 6 km 500 ft 200° 200° 11 kt METAR EHVL 232117Z AUTO 20011KT 6000 +DZRA BKN005 BKN006 FEW015CB 09/09 Q0998 YLO
22:12
I
9 °C 5 km 600 ft 200° 200° 11 kt METAR EHVL 232112Z AUTO 20011KT 5000 -RA SCT005 BKN006 BKN008 FEW015CB 09/09 Q0998 YLO
22:08
M
9 °C 5 km 4.700 ft 200° 200° 11 kt METAR EHVL 232108Z AUTO 20011KT 5000 -RA FEW005 SCT008 FEW015CB BKN047 09/09 Q0998 GRN
21:59
I
9 °C 6 km 900 ft 210° 210° 12 kt METAR EHVL 232059Z AUTO 21012KT 6000 -SHRA FEW001 SCT007 BKN009 FEW015CB 09/09 Q0998 GRN
21:25
M
10 °C 5 km 5.000 ft 240° 240° 19 kt METAR EHVL 232025Z AUTO 24019KT 5000 -RA FEW015CB BKN050 OVC056 10/09 Q0998 RERA REDZ WHT
21:19
M
10 °C 5 km 5.000 ft 230° 230° 20 kt METAR EHVL 232019Z AUTO 23020KT 5000 -RA FEW015CB SCT045 OVC050 10/08 Q0998 WHT
21:10
M
10 °C 7 km 5.100 ft 220° 220° 23 kt METAR EHVL 232010Z AUTO 22023KT 7000 -SHRA FEW015CB SCT044 OVC051 10/08 Q0998 WHT
21:05
V
10 °C 10 km+ 5.200 ft 210° 210° 22 kt METAR EHVL 232005Z AUTO 21022KT 9999 DZRA FEW015CB BKN052 OVC063 10/08 Q0998 BLU
20:55
V
11 °C 10 km+ 4.800 ft 220° 220° 23 kt METAR EHVL 231955Z AUTO 22023KT 9999 -DZ SCT044 BKN048 OVC067 11/08 Q0998 BLU
20:25
V
12 °C 10 km+ 9.300 ft 210° 210° 28 kt METAR EHVL 231925Z AUTO 21028KT 9999 -RADZ FEW035 SCT058 BKN093 12/08 Q0998 BLU
19:55
V
11 °C 10 km+ 7.600 ft 210° 210° 22 kt METAR EHVL 231855Z AUTO 21022KT 9999 FEW071 BKN076 OVC098 11/07 Q0998 BLU
19:25
V
11 °C 10 km+ 13.000 ft 210° 210° 24 kt METAR EHVL 231825Z AUTO 21024KT 9999 FEW061 OVC130 11/07 Q0999 BLU
18:55
V
12 °C 10 km+ 12.000 ft 210° 210° 28 kt METAR EHVL 231755Z AUTO 21028KT 9999 OVC120 12/07 Q0999 BLU
18:25
V
12 °C 10 km+ 17.000 ft 210° 210° 29 kt METAR EHVL 231725Z AUTO 21029KT 9999 OVC170 12/07 Q0999 BLU
17:55
V
12 °C 10 km+ 16.000 ft 210° 210° 27 kt METAR EHVL 231655Z AUTO 21027KT 9999 OVC160 12/07 Q0999 BLU
17:25
V
12 °C 10 km+ 19.000 ft 210° 210° 28 kt METAR EHVL 231625Z AUTO 21028KT 9999 FEW061 OVC190 12/08 Q0999 BLU
16:55
V
12 °C 10 km+ 8.300 ft 220° 220° 28 kt METAR EHVL 231555Z AUTO 22028KT 9999 FEW056 SCT077 BKN083 12/08 Q0999 BLU
16:25
V
11 °C 10 km+ 6.100 ft 220° 220° 31 kt METAR EHVL 231525Z AUTO 22031KT 9999 BKN061 BKN087 11/08 Q0999 BLU
15:55
V
12 °C 10 km+ 14.000 ft 220° 220° 33 kt METAR EHVL 231455Z AUTO 22033KT 9999 BKN140 12/07 Q0999 BLU
15:25
V
12 °C 10 km+ - 220° 220° 31 kt METAR EHVL 231425Z AUTO 22031KT 9999 NCD 12/08 Q1000 BLU
14:55
V
12 °C 10 km+ - 220° 220° 32 kt METAR EHVL 231355Z AUTO 22032KT 9999 NCD 12/08 Q1000 BLU
14:25
V
12 °C 9 km - 220° 220° 31 kt METAR EHVL 231325Z AUTO 22031KT 9000 HZ NCD 12/08 Q1000 BLU
13:55
V
12 °C 10 km+ - 220° 220° 30 kt METAR EHVL 231255Z AUTO 22030KT 9999 NCD 12/08 Q1000 BLU
13:25
V
11 °C 9 km - 220° 220° 29 kt METAR EHVL 231225Z AUTO 22029KT 9000 BR FEW056 11/08 Q1000 BLU
12:55
V
11 °C 9 km - 220° 220° 29 kt METAR EHVL 231155Z AUTO 22029KT 9000 BR NCD 11/08 Q1000 BLU
12:25
V
11 °C 9 km - 220° 220° 25 kt METAR EHVL 231125Z AUTO 22025KT 9000 BR NCD 11/08 Q1000 BLU
11:55
V
11 °C 9 km - 220° 220° 26 kt METAR EHVL 231055Z AUTO 22026KT 9000 BR NCD 11/08 Q1000 BLU
11:25
V
11 °C 9 km - 220° 220° 25 kt METAR EHVL 231025Z AUTO 22025KT 9000 BR FEW022 11/08 Q1000 BLU
10:55
V
11 °C 8 km - 220° 220° 23 kt METAR EHVL 230955Z AUTO 22023KT 8000 BR NCD 11/08 Q0999 BLU
10:25
V
10 °C 9 km - 220° 220° 22 kt METAR EHVL 230925Z AUTO 22022KT 9000 BR NCD 10/07 Q0999 BLU
09:55
V
10 °C 10 km+ - 230° 230° 23 kt METAR EHVL 230855Z AUTO 23023KT 9999 NCD 10/08 Q0999 BLU
09:25
V
10 °C 10 km+ - 230° 230° 23 kt METAR EHVL 230825Z AUTO 23023KT 9999 NCD 10/07 Q0999 BLU
08:55
V
10 °C 9 km - 230° 230° 23 kt METAR EHVL 230755Z AUTO 23023KT 9000 BR NCD 10/08 Q0998 BLU
08:25
V
9 °C 9 km - 220° 220° 23 kt METAR EHVL 230725Z AUTO 22023KT 9000 BR FEW024 SCT029 09/08 Q0998 BLU
07:55
V
9 °C 10 km+ - 220° 220° 26 kt METAR EHVL 230655Z AUTO 22026KT 9999 NCD 09/07 Q0998 BLU
07:25
V
9 °C 10 km+ - 220° 220° 25 kt METAR EHVL 230625Z AUTO 22025KT 9999 NCD 09/06 Q0997 BLU
06:55
V
9 °C 10 km+ - 220° 220° 27 kt METAR EHVL 230555Z AUTO 22027KT 9999 NCD 09/06 Q0997 BLU
06:25
V
9 °C 10 km+ 7.400 ft 220° 220° 28 kt METAR EHVL 230525Z AUTO 22028KT 9999 FEW055 BKN074 09/07 Q0997 BLU
05:55
V
9 °C 10 km+ 6.600 ft 220° 220° 29 kt METAR EHVL 230455Z AUTO 22029KT 9999 FEW044 SCT057 BKN066 09/07 Q0996 BLU
05:29
V
10 °C 10 km+ 5.800 ft 220° 220° 31 kt METAR EHVL 230429Z AUTO 22031KT 9999 FEW015CB SCT047 BKN058 10/07 Q0996 BLU
05:25
V
10 °C 10 km+ 4.500 ft 220° 220° 33 kt METAR EHVL 230425Z AUTO 22033KT 9999 FEW015CB SCT023 BKN045 10/07 Q0996 WHT
04:56
M
10 °C 10 km+ 2.300 ft 220° 220° 32 kt METAR EHVL 230356Z AUTO 22032KT 9999 FEW015CB SCT019 BKN023 OVC032 10/08 Q0996 WHT
04:55
V
10 °C 10 km+ 4.100 ft 220° 220° 32 kt METAR EHVL 230355Z AUTO 22032KT 9999 FEW015CB SCT019 BKN041 10/08 Q0996 WHT
04:25
V
11 °C 10 km+ 5.700 ft 210° 210° 31 kt METAR EHVL 230325Z AUTO 21031KT 9999 FEW015CB SCT047 BKN057 11/08 Q0996 BLU
03:55
V
11 °C 10 km+ 4.900 ft 210° 210° 31 - 41 kt METAR EHVL 230255Z AUTO 21031G41KT 9999 SCT044 BKN049 OVC054 11/08 Q0996 BLU
03:25
V
11 °C 10 km+ 9.400 ft 210° 210° 31 kt METAR EHVL 230225Z AUTO 21031KT 9999 SCT056 SCT064 BKN094 11/08 Q0996 BLU
03:00
V
11 °C 10 km+ 8.700 ft 210° 210° 30 kt METAR EHVL 230200Z AUTO 21030KT 9999 FEW017 SCT055 BKN087 11/08 Q0996 BLU
02:55
V
11 °C 10 km+ 5.500 ft 210° 210° 29 kt METAR EHVL 230155Z AUTO 21029KT 9999 SCT017 BKN055 BKN061 11/08 Q0996 WHT
02:37
M
11 °C 10 km+ 2.300 ft 210° 210° 26 kt METAR EHVL 230137Z AUTO 21026KT 9999 FEW015CB SCT020 BKN023 OVC052 11/08 Q0997 WHT
02:36
V
11 °C 10 km+ 5.200 ft 210° 210° 26 kt METAR EHVL 230136Z AUTO 21026KT 9999 FEW015CB SCT020 BKN052 11/08 Q0997 WHT
02:25
M
11 °C 10 km+ 1.700 ft 210° 210° 24 kt METAR EHVL 230125Z AUTO 21024KT 9999 FEW015CB BKN017 BKN020 BKN056 11/08 Q0997 WHT
01:59
M
11 °C 10 km+ 1.700 ft 200° 200° 23 kt METAR EHVL 230059Z AUTO 20023KT 9999 BKN017 BKN053 BKN058 11/08 Q0997 WHT
01:25
M
10 °C 10 km+ 1.800 ft 200° 200° 24 kt METAR EHVL 230025Z AUTO 20024KT 9999 BKN018 OVC044 10/09 Q0997 WHT
01:21
V
10 °C 10 km+ 4.400 ft 200° 200° 24 kt METAR EHVL 230021Z AUTO 20024KT 9999 SCT018 BKN044 OVC120 10/09 Q0998 WHT
01:05
V
11 °C 10 km+ 6.100 ft 200° 200° 24 kt METAR EHVL 230005Z AUTO 20024KT 9999 FEW014 SCT047 OVC061 11/09 Q0998 BLU
00:55
M
10 °C 10 km+ 1.600 ft 200° 200° 22 kt METAR EHVL 222355Z AUTO 20022KT 9999 BKN016 OVC020 10/09 Q0998 WHT
00:39
M
10 °C 10 km+ 1.600 ft 200° 200° 23 kt METAR EHVL 222339Z AUTO 20023KT 9999 BKN016 BKN022 OVC041 10/09 Q0998 WHT
00:35
V
10 °C 10 km+ 3.600 ft 200° 200° 23 kt METAR EHVL 222335Z AUTO 20023KT 9999 FEW016 SCT022 BKN036 10/09 Q0998 WHT
00:25
V
10 °C 10 km+ 5.300 ft 200° 200° 23 kt METAR EHVL 222325Z AUTO 20023KT 9999 FEW013 SCT047 OVC053 10/09 Q0998 BLU
00:14
V
10 °C 10 km+ 5.300 ft 200° 200° 21 kt METAR EHVL 222314Z AUTO 20021KT 9999 FEW009 FEW015CB BKN053 OVC058 10/09 Q0998 BLU
00:01
M
10 °C 10 km+ 1.000 ft 200° 200° 22 kt METAR EHVL 222301Z AUTO 20022KT 9999 FEW009 BKN010 FEW015CB OVC063 10/09 Q0998 GRN
00:00
V
10 °C 10 km+ 4.800 ft 200° 200° 22 kt METAR EHVL 222300Z AUTO 20022KT 9999 FEW010 SCT012 FEW015CB BKN048 10/08 Q0998 GRN

22. März 2023

Uhrzeit Code Wetter Temp. Sichtweite Wolkendecke Wind METAR/SPECI
23:55
V
10 °C 10 km+ 6.200 ft 200° 200° 21 kt METAR EHVL 222255Z AUTO 20021KT 9999 -RA FEW012 FEW015CB SCT048 BKN062 10/08 Q0998 RERA REDZ BLU
23:36
V
10 °C 10 km+ 6.400 ft 200° 200° 21 kt METAR EHVL 222236Z AUTO 20021KT 9999 -DZRA FEW018 SCT050 BKN064 10/08 Q0998 BLU
23:25
V
10 °C 10 km+ 6.900 ft 200° 200° 23 kt METAR EHVL 222225Z AUTO 20023KT 9999 FEW020 BKN069 BKN079 10/08 Q0998 BLU
22:55
V
10 °C 10 km+ 10.000 ft 200° 200° 20 kt METAR EHVL 222155Z AUTO 20020KT 9999 OVC100 10/08 Q0998 BLU
22:25
V
10 °C 10 km+ 10.000 ft 200° 200° 19 kt METAR EHVL 222125Z AUTO 20019KT 9999 FEW015CB SCT095 OVC100 10/08 Q0999 BLU
21:55
V
10 °C 10 km+ 5.900 ft 190° 190° 28 - 38 kt METAR EHVL 222055Z AUTO 19028G38KT 9999 FEW006 FEW015CB SCT046 BKN059 10/09 Q0998 BLU
21:42
I
11 °C 10 km+ 800 ft 200° 200° 27 kt METAR EHVL 222042Z AUTO 20027KT 9999 FEW006 BKN008 OVC009 11/09 Q0999 GRN
21:38
I
11 °C 10 km+ 700 ft 200° 200° 27 kt METAR EHVL 222038Z AUTO 20027KT 9999 SCT006 BKN007 OVC009 11/09 Q0999 YLO
21:25
I
11 °C 10 km+ 700 ft 210° 210° 27 kt METAR EHVL 222025Z AUTO 21027KT 9999 BKN007 OVC008 11/09 Q1000 GRN
21:11
I
11 °C 10 km+ 600 ft 210° 210° 27 kt METAR EHVL 222011Z AUTO 21027KT 9999 BKN006 OVC007 11/09 Q1000 YLO
20:55
I
10 °C 10 km+ 900 ft 210° 210° 26 kt METAR EHVL 221955Z AUTO 21026KT 9999 FEW007 SCT008 BKN009 10/09 Q1000 GRN
20:25
I
10 °C 10 km+ 900 ft 210° 210° 25 - 35 kt METAR EHVL 221925Z AUTO 21025G35KT 9999 FEW006 SCT008 BKN009 10/09 Q1000 GRN
19:55
I
10 °C 10 km+ 500 ft 210° 210° 27 kt METAR EHVL 221855Z AUTO 21027KT 9999 BKN005 OVC007 10/09 Q1000 YLO
19:25
I
10 °C 10 km+ 600 ft 210° 210° 30 kt METAR EHVL 221825Z AUTO 21030KT 9999 BKN006 OVC007 10/09 Q1000 YLO
19:04
I
10 °C 10 km+ 600 ft 210° 210° 25 kt METAR EHVL 221804Z AUTO 21025KT 9999 FEW005 BKN006 BKN008 10/09 Q1000 YLO
18:55
I
10 °C 10 km+ 700 ft 210° 210° 26 kt METAR EHVL 221755Z AUTO 21026KT 9999 FEW004 SCT006 BKN007 10/09 Q1000 REDZ YLO
18:42
I
10 °C 4,5 km 500 ft 210° 210° 26 kt METAR EHVL 221742Z AUTO 21026KT 4500 BR FEW004 BKN005 OVC007 10/09 Q1001 YLO
18:25
I
10 °C 3,9 km 600 ft 210° 210° 26 kt METAR EHVL 221725Z AUTO 21026KT 3900 -RA SCT004 BKN006 OVC007 10/09 Q1000 YLO
18:21
I
10 °C 3,3 km 600 ft 210° 210° 27 kt METAR EHVL 221721Z AUTO 21027KT 3300 BR SCT004 BKN006 OVC007 10/09 Q1001 YLO
18:10
I
10 °C 7 km 600 ft 210° 210° 27 kt METAR EHVL 221710Z AUTO 21027KT 7000 BR FEW004 BKN006 OVC007 10/09 Q1000 YLO
17:55
I
10 °C 3,9 km 500 ft 220° 220° 26 kt METAR EHVL 221655Z AUTO 22026KT 3900 BR SCT004 BKN005 OVC006 10/09 Q1000 YLO
17:33
L
10 °C 4,3 km 400 ft 210° 210° 27 kt METAR EHVL 221633Z AUTO 21027KT 4300 BR BKN004 OVC005 10/09 Q1001 YLO
17:25
I
10 °C 9 km 500 ft 220° 220° 27 kt METAR EHVL 221625Z AUTO 22027KT 9000 BR OVC005 10/09 Q1001 YLO
17:12
L
10 °C 7 km 400 ft 220° 220° 27 kt METAR EHVL 221612Z AUTO 22027KT 7000 BR BKN004 OVC005 10/09 Q1000 YLO
16:55
I
10 °C 10 km+ 500 ft 220° 220° 28 kt METAR EHVL 221555Z AUTO 22028KT 9999 BKN005 OVC006 10/09 Q1001 YLO
16:25
I
10 °C 10 km+ 600 ft 220° 220° 30 kt METAR EHVL 221525Z AUTO 22030KT 9999 OVC006 10/09 Q1001 YLO
16:14
I
10 °C 10 km+ 600 ft 220° 220° 30 kt METAR EHVL 221514Z AUTO 22030KT 9999 OVC006 10/09 Q1001 YLO
16:08
I
10 °C 10 km+ 700 ft 220° 220° 30 kt METAR EHVL 221508Z AUTO 22030KT 9999 OVC007 10/09 Q1001 GRN
15:55
I
10 °C 10 km+ 700 ft 220° 220° 29 kt METAR EHVL 221455Z AUTO 22029KT 9999 OVC007 10/08 Q1001 GRN
15:25
I
10 °C 10 km+ 700 ft 210° 210° 29 kt METAR EHVL 221425Z AUTO 21029KT 9999 BKN007 OVC008 10/08 Q1001 GRN
14:55
I
10 °C 10 km+ 700 ft 220° 220° 31 kt METAR EHVL 221355Z AUTO 22031KT 9999 BKN007 OVC008 10/08 Q1001 GRN
14:40
I
10 °C 6 km 700 ft 210° 210° 29 kt METAR EHVL 221340Z AUTO 21029KT 6000 BR OVC007 10/08 Q1001 GRN
14:25
I
10 °C 10 km+ 700 ft 210° 210° 30 kt METAR EHVL 221325Z AUTO 21030KT 9999 OVC007 10/08 Q1001 GRN
13:55
I
10 °C 10 km+ 800 ft 220° 220° 30 kt METAR EHVL 221255Z AUTO 22030KT 9999 OVC008 10/08 Q1001 GRN
13:35
I
10 °C 10 km+ 800 ft 220° 220° 28 kt METAR EHVL 221235Z AUTO 22028KT 9999 OVC008 10/08 Q1001 GRN
13:25
I
9 °C 9 km 800 ft 220° 220° 29 kt METAR EHVL 221225Z AUTO 22029KT 9000 BR FEW007 OVC008 09/08 Q1001 GRN
13:20
I
9 °C 6 km 800 ft 220° 220° 28 kt METAR EHVL 221220Z AUTO 22028KT 6000 BR BKN008 OVC009 09/08 Q1001 GRN
12:55
I
9 °C 10 km+ 900 ft 220° 220° 31 kt METAR EHVL 221155Z AUTO 22031KT 9999 BKN009 OVC010 09/08 Q1001 GRN
12:25
M
9 °C 10 km+ 1.000 ft 220° 220° 31 - 41 kt METAR EHVL 221125Z AUTO 22031G41KT 9999 BKN010 OVC012 09/08 Q1001 GRN
11:55
M
10 °C 10 km+ 1.200 ft 210° 210° 31 kt METAR EHVL 221055Z AUTO 21031KT 9999 SCT010 OVC012 10/08 Q1001 REDZ GRN
11:34
M
9 °C 10 km+ 1.100 ft 210° 210° 31 kt METAR EHVL 221034Z AUTO 21031KT 9999 FEW009 BKN011 BKN013 FEW015CB 09/08 Q1001 GRN
11:25
M
9 °C 8 km 1.100 ft 210° 210° 30 kt METAR EHVL 221025Z AUTO 21030KT 8000 DZRA FEW009 BKN011 BKN014 FEW015CB 09/08 Q1001 GRN
11:15
M
9 °C 8 km 1.500 ft 210° 210° 32 - 42 kt METAR EHVL 221015Z AUTO 21032G42KT 8000 -RA FEW010 SCT012 BKN015CB 09/08 Q1001 GRN
11:08
M
9 °C 9 km 1.500 ft 210° 210° 32 kt METAR EHVL 221008Z AUTO 21032KT 9000 -RA FEW010 SCT012 BKN015CB 09/08 Q1001 GRN
11:07
M
9 °C 10 km+ 1.500 ft 210° 210° 31 kt METAR EHVL 221007Z AUTO 21031KT 9999 -RA FEW011 BKN015CB 09/08 Q1001 WHT
10:59
M
9 °C 10 km+ 1.500 ft 210° 210° 30 - 40 kt METAR EHVL 220959Z AUTO 21030G40KT 9999 -RA FEW012 BKN015CB 09/08 Q1001 WHT
10:25
M
9 °C 8 km 1.000 ft 210° 210° 30 kt METAR EHVL 220925Z AUTO 21030KT 8000 -RA FEW009 BKN010 BKN013 FEW015CB 09/08 Q1001 GRN
10:05
M
9 °C 9 km 1.300 ft 210° 210° 29 kt METAR EHVL 220905Z AUTO 21029KT 9000 -RA SCT011 BKN013 FEW015CB OVC016 09/08 Q1001 GRN
09:55
M
9 °C 7 km 1.200 ft 210° 210° 30 kt METAR EHVL 220855Z AUTO 21030KT 7000 -RA FEW008 SCT010 BKN012 09/08 Q1001 RERA REDZ GRN
09:25
M
9 °C 5 km 1.000 ft 200° 200° 28 kt METAR EHVL 220825Z AUTO 20028KT 5000 -RADZ FEW009 BKN010 BKN013 FEW015CB 09/08 Q1001 GRN
09:12
M
9 °C 7 km 2.600 ft 200° 200° 28 kt METAR EHVL 220812Z AUTO 20028KT 7000 DZRA FEW009 FEW015CB SCT020 BKN026 09/07 Q1001 WHT
08:57
M
9 °C 8 km 2.800 ft 200° 200° 27 kt METAR EHVL 220757Z AUTO 20027KT 8000 -SHRA FEW014 FEW015CB SCT023 OVC028 09/07 Q1001 WHT
08:55
M
9 °C 8 km 2.900 ft 200° 200° 28 kt METAR EHVL 220755Z AUTO 20028KT 8000 -SHRA FEW014 FEW015CB BKN029 OVC036 09/07 Q1001 BLU
08:50
M
9 °C 7 km 2.900 ft 200° 200° 28 kt SPECI EHVL 220750Z AUTO 20028KT 7000 -RA FEW013 FEW015CB SCT023 BKN029 09/07 Q1001 WHT

Wir und Dritte verfolgen dein Internetverhalten auf unserer Website mit Cookies. Wenn du fortfährst, gehen wir davon aus, dass du mit unserer Cookie-Richtlinie einverstanden bist.